createdAt,value
2023-04-09T00:00:23.110Z,9.30
2023-04-09T00:05:24.525Z,9.35
2023-04-09T00:10:25.965Z,9.31
2023-04-09T00:15:31.151Z,9.27
2023-04-09T00:20:33.271Z,9.18
2023-04-09T00:25:34.962Z,9.24
2023-04-09T00:30:36.459Z,9.25
2023-04-09T00:35:37.961Z,9.18
2023-04-09T00:40:39.462Z,9.18
2023-04-09T00:45:41.424Z,9.16
2023-04-09T00:50:43.168Z,9.18
2023-04-09T00:55:45.795Z,9.21
2023-04-09T01:00:47.335Z,9.16
2023-04-09T01:06:05.879Z,9.07
2023-04-09T01:11:24.084Z,9.06
2023-04-09T01:16:25.802Z,9.04
2023-04-09T01:21:32.066Z,9.07
2023-04-09T01:27:03.197Z,9.12
2023-04-09T01:32:07.152Z,9.12
2023-04-09T01:37:09.460Z,9.16
2023-04-09T01:42:12.865Z,9.12
2023-04-09T01:47:14.379Z,9.15
2023-04-09T01:52:15.892Z,9.18
2023-04-09T01:57:17.343Z,9.28
2023-04-09T02:02:27.913Z,9.07
2023-04-09T02:07:40.878Z,8.97
2023-04-09T02:12:48.328Z,9.04
2023-04-09T02:17:50.330Z,9.07
2023-04-09T02:22:51.807Z,8.95
2023-04-09T02:27:53.251Z,8.92
2023-04-09T02:32:54.734Z,8.88
2023-04-09T02:37:56.222Z,8.82
2023-04-09T02:42:58.368Z,8.84
2023-04-09T02:47:59.857Z,8.82
2023-04-09T02:53:01.316Z,8.75
2023-04-09T02:58:02.757Z,8.76
2023-04-09T03:03:04.591Z,8.82
2023-04-09T03:08:06.579Z,8.79
2023-04-09T03:13:08.159Z,8.87
2023-04-09T03:18:09.701Z,8.73
2023-04-09T03:23:11.745Z,8.72
2023-04-09T03:28:13.308Z,8.69
2023-04-09T03:33:14.868Z,8.65
2023-04-09T03:38:16.437Z,8.66
2023-04-09T03:43:17.993Z,8.75
2023-04-09T03:48:19.534Z,8.74
2023-04-09T03:53:21.154Z,8.76
2023-04-09T03:58:22.736Z,8.63
2023-04-09T04:03:24.397Z,8.69
2023-04-09T04:08:26.074Z,8.79
2023-04-09T04:13:27.664Z,8.90
2023-04-09T04:18:29.270Z,8.81
2023-04-09T04:23:30.853Z,8.89
2023-04-09T04:28:32.427Z,8.74
2023-04-09T04:33:34.002Z,8.73
2023-04-09T04:38:36.044Z,8.78
2023-04-09T04:43:37.806Z,8.81
2023-04-09T04:48:39.399Z,8.86
2023-04-09T04:53:41.213Z,8.74
2023-04-09T04:58:44.006Z,8.70
2023-04-09T05:03:45.684Z,8.64
2023-04-09T05:08:47.301Z,8.67
2023-04-09T05:13:48.897Z,8.44
2023-04-09T05:18:51.107Z,8.30
2023-04-09T05:23:52.778Z,8.50
2023-04-09T05:28:54.532Z,8.59
2023-04-09T05:33:56.068Z,8.52
2023-04-09T05:38:57.636Z,8.67
2023-04-09T05:44:00.847Z,8.71
2023-04-09T05:49:02.599Z,8.75
2023-04-09T05:54:04.175Z,8.72
2023-04-09T05:59:05.629Z,8.71
2023-04-09T06:04:07.368Z,8.66
2023-04-09T06:09:08.911Z,8.58
2023-04-09T06:14:12.357Z,8.49
2023-04-09T06:19:16.339Z,8.56
2023-04-09T06:24:17.781Z,8.23
2023-04-09T06:29:19.221Z,8.36
2023-04-09T06:34:20.938Z,8.37
2023-04-09T06:39:22.363Z,8.28
2023-04-09T06:44:24.386Z,8.51
2023-04-09T06:49:26.214Z,8.28
2023-04-09T06:54:27.665Z,7.89
2023-04-09T06:59:29.134Z,8.00
2023-04-09T07:04:30.984Z,8.02
2023-04-09T07:09:32.470Z,8.08
2023-04-09T07:14:33.923Z,7.94
2023-04-09T07:19:35.354Z,7.96
2023-04-09T07:24:37.145Z,8.05
2023-04-09T07:29:38.560Z,7.74
2023-04-09T07:34:39.981Z,7.79
2023-04-09T07:39:42.593Z,7.58
2023-04-09T07:44:44.086Z,7.83
2023-04-09T07:49:45.507Z,7.73
2023-04-09T07:54:46.945Z,7.79
2023-04-09T07:59:48.724Z,7.91
2023-04-09T08:04:50.761Z,8.09
2023-04-09T08:09:52.303Z,8.14
2023-04-09T08:14:53.744Z,8.13
2023-04-09T08:19:55.176Z,8.06
2023-04-09T08:24:58.021Z,8.21
2023-04-09T08:29:59.593Z,8.26
2023-04-09T08:35:01.025Z,8.24
2023-04-09T08:40:02.953Z,8.35
2023-04-09T08:45:05.434Z,8.18
2023-04-09T08:50:07.191Z,8.44
2023-04-09T08:55:11.592Z,8.62
2023-04-09T09:00:13.412Z,8.67
2023-04-09T09:05:14.901Z,8.55
2023-04-09T09:10:17.190Z,8.58
2023-04-09T09:15:29.370Z,8.49
2023-04-09T09:20:30.794Z,8.62
2023-04-09T09:25:38.380Z,8.50
2023-04-09T09:30:41.026Z,8.63
2023-04-09T09:35:49.161Z,8.66
2023-04-09T09:40:50.648Z,8.70
2023-04-09T09:45:53.427Z,8.69
2023-04-09T09:50:55.183Z,8.76
2023-04-09T09:56:00.003Z,8.84
2023-04-09T10:01:02.947Z,8.87
2023-04-09T10:06:04.698Z,8.84
2023-04-09T10:11:07.781Z,8.64
2023-04-09T10:16:09.813Z,8.61
2023-04-09T10:21:30.683Z,8.44
2023-04-09T10:26:36.631Z,8.72
2023-04-09T10:32:05.057Z,8.66
2023-04-09T10:37:14.219Z,8.49
2023-04-09T10:42:24.774Z,8.85
2023-04-09T10:47:34.611Z,8.73
2023-04-09T10:52:40.930Z,8.79
2023-04-09T10:57:43.045Z,8.99
2023-04-09T11:03:02.886Z,8.98
2023-04-09T11:08:07.727Z,9.14
2023-04-09T11:13:16.162Z,9.25
2023-04-09T11:18:22.939Z,9.26
2023-04-09T11:23:25.352Z,9.16
2023-04-09T11:28:26.958Z,9.01
2023-04-09T11:33:33.257Z,8.58
2023-04-09T11:38:37.057Z,8.82
2023-04-09T11:43:38.539Z,8.98
2023-04-09T11:48:40.343Z,9.04
2023-04-09T11:53:41.961Z,9.13
2023-04-09T11:58:47.976Z,9.06
2023-04-09T12:03:56.266Z,9.21
2023-04-09T12:08:59.260Z,9.02
2023-04-09T12:14:04.905Z,9.23
2023-04-09T12:19:08.092Z,9.28
2023-04-09T12:24:09.519Z,9.28
2023-04-09T12:29:10.967Z,9.31
2023-04-09T12:34:12.670Z,9.12
2023-04-09T12:39:14.138Z,8.72
2023-04-09T12:44:15.663Z,8.99
2023-04-09T12:49:17.083Z,9.04
2023-04-09T12:54:18.555Z,8.97
2023-04-09T12:59:20.004Z,9.13
2023-04-09T13:04:21.502Z,9.07
2023-04-09T13:09:23.065Z,9.05
2023-04-09T13:14:24.485Z,8.94
2023-04-09T13:19:26.100Z,9.02
2023-04-09T13:24:27.760Z,9.25
2023-04-09T13:29:29.450Z,9.35
2023-04-09T13:34:30.964Z,9.48
2023-04-09T13:39:32.888Z,9.90
2023-04-09T13:44:35.181Z,9.64
2023-04-09T13:49:36.691Z,9.65
2023-04-09T13:54:38.165Z,9.73
2023-04-09T13:59:41.667Z,9.83
2023-04-09T14:04:43.273Z,9.74
2023-04-09T14:09:44.893Z,9.67
2023-04-09T14:14:46.342Z,9.66
2023-04-09T14:19:47.818Z,9.57
2023-04-09T14:24:49.360Z,9.67
2023-04-09T14:29:50.934Z,9.52
2023-04-09T14:34:52.350Z,9.64
2023-04-09T14:39:53.770Z,9.52
2023-04-09T14:44:55.251Z,9.51
2023-04-09T14:49:56.689Z,9.58
2023-04-09T14:54:58.799Z,9.58
2023-04-09T15:00:00.256Z,9.56
2023-04-09T15:05:02.878Z,9.60
2023-04-09T15:10:04.766Z,9.60
2023-04-09T15:15:07.846Z,9.68
2023-04-09T15:20:09.645Z,9.55
2023-04-09T15:25:13.096Z,9.68
2023-04-09T15:30:15.720Z,9.70
2023-04-09T15:35:23.951Z,9.80
2023-04-09T15:40:26.120Z,9.68
2023-04-09T15:45:27.591Z,9.80
2023-04-09T15:50:29.050Z,9.72
2023-04-09T15:55:30.745Z,9.41
2023-04-09T16:00:32.201Z,9.61
2023-04-09T16:05:33.647Z,9.59
2023-04-09T16:10:35.106Z,9.62
2023-04-09T16:15:36.562Z,9.66
2023-04-09T16:20:37.986Z,9.65
2023-04-09T16:25:39.398Z,9.62
2023-04-09T16:30:40.914Z,9.55
2023-04-09T16:35:42.823Z,9.52
2023-04-09T16:40:44.383Z,9.50
2023-04-09T16:45:46.572Z,9.42
2023-04-09T16:50:48.126Z,9.54
2023-04-09T16:55:50.045Z,9.43
2023-04-09T17:00:52.225Z,9.49
2023-04-09T17:05:53.880Z,9.50
2023-04-09T17:11:01.926Z,9.58
2023-04-09T17:16:03.821Z,9.47
2023-04-09T17:21:06.755Z,9.54
2023-04-09T17:26:08.351Z,9.55
2023-04-09T17:31:14.487Z,9.47
2023-04-09T17:36:20.265Z,9.45
2023-04-09T17:41:22.661Z,9.47
2023-04-09T17:46:24.474Z,9.51
2023-04-09T17:51:27.036Z,9.31
2023-04-09T17:56:28.453Z,9.31
2023-04-09T18:01:29.985Z,9.23
2023-04-09T18:06:31.547Z,9.34
2023-04-09T18:11:33.086Z,9.35
2023-04-09T18:16:38.044Z,9.43
2023-04-09T18:21:39.518Z,9.42
2023-04-09T18:26:41.078Z,9.20
2023-04-09T18:31:42.700Z,9.27
2023-04-09T18:36:44.253Z,9.32
2023-04-09T18:41:45.775Z,9.32
2023-04-09T18:46:47.264Z,9.29
2023-04-09T18:51:48.750Z,9.33
2023-04-09T18:56:50.264Z,9.39
2023-04-09T19:01:51.864Z,9.43
2023-04-09T19:06:56.559Z,9.37
2023-04-09T19:11:58.191Z,9.37
2023-04-09T19:16:59.837Z,9.40
2023-04-09T19:22:01.731Z,9.43
2023-04-09T19:27:09.579Z,9.41
2023-04-09T19:32:13.252Z,9.42
2023-04-09T19:37:16.380Z,9.41
2023-04-09T19:42:17.813Z,9.38
2023-04-09T19:47:19.433Z,9.38
2023-04-09T19:52:21.489Z,9.20
2023-04-09T19:57:23.019Z,9.39
2023-04-09T20:02:25.355Z,9.35
2023-04-09T20:07:27.245Z,9.41
2023-04-09T20:12:29.544Z,9.51
2023-04-09T20:17:31.119Z,9.43
2023-04-09T20:22:32.806Z,9.18
2023-04-09T20:27:34.812Z,9.26
2023-04-09T20:32:37.625Z,9.25
2023-04-09T20:37:39.234Z,9.29
2023-04-09T20:42:41.327Z,9.26
2023-04-09T20:47:42.967Z,9.31
2023-04-09T20:52:44.721Z,9.34
2023-04-09T20:57:46.471Z,9.38
2023-04-09T21:02:48.134Z,9.38
2023-04-09T21:07:50.003Z,9.33
2023-04-09T21:12:51.486Z,9.35
2023-04-09T21:17:53.001Z,9.28
2023-04-09T21:22:54.521Z,9.24
2023-04-09T21:27:55.994Z,9.24
2023-04-09T21:32:59.592Z,9.23
2023-04-09T21:38:02.875Z,9.26
2023-04-09T21:43:04.320Z,9.21
2023-04-09T21:48:07.125Z,9.27
2023-04-09T21:53:08.891Z,9.23
2023-04-09T21:58:11.872Z,9.30
2023-04-09T22:03:13.504Z,9.35
2023-04-09T22:08:14.985Z,9.30
2023-04-09T22:13:16.446Z,9.27
2023-04-09T22:18:17.898Z,9.21
2023-04-09T22:23:19.313Z,9.20
2023-04-09T22:28:20.774Z,9.19
2023-04-09T22:33:22.180Z,9.21
2023-04-09T22:38:23.998Z,9.18
2023-04-09T22:43:25.528Z,9.11
2023-04-09T22:48:27.183Z,9.06
2023-04-09T22:53:28.657Z,9.01
2023-04-09T22:58:30.060Z,9.02
2023-04-09T23:03:32.148Z,8.96
2023-04-09T23:08:33.589Z,8.93
2023-04-09T23:13:35.042Z,8.91
2023-04-09T23:18:37.138Z,8.88
2023-04-09T23:23:39.138Z,8.84
2023-04-09T23:28:40.972Z,8.78
2023-04-09T23:33:42.494Z,8.75
2023-04-09T23:38:46.840Z,8.73
2023-04-09T23:43:48.261Z,8.78
2023-04-09T23:48:49.714Z,8.81
2023-04-09T23:53:51.513Z,8.77
2023-04-09T23:58:53.201Z,8.76
